createdAt,value
2022-08-07T00:00:35.784Z,46.64
2022-08-07T00:04:41.615Z,46.04
2022-08-07T00:08:47.152Z,46.64
2022-08-07T00:12:57.945Z,46.86
2022-08-07T00:17:03.153Z,46.63
2022-08-07T00:21:08.103Z,47.17
2022-08-07T00:25:28.771Z,47.28
2022-08-07T00:29:39.244Z,47.46
2022-08-07T00:33:41.659Z,47.36
2022-08-07T00:37:48.002Z,47.34
2022-08-07T00:42:02.444Z,47.55
2022-08-07T00:46:07.989Z,47.63
2022-08-07T00:50:20.696Z,48.05
2022-08-07T00:54:32.596Z,47.92
2022-08-07T00:58:34.454Z,47.99
2022-08-07T01:02:36.199Z,48.28
2022-08-07T01:06:41.359Z,47.87
2022-08-07T01:10:47.616Z,48.16
2022-08-07T01:15:01.611Z,48.29
2022-08-07T01:19:18.004Z,48.58
2022-08-07T01:23:35.403Z,48.78
2022-08-07T01:27:51.438Z,48.80
2022-08-07T01:31:54.400Z,48.95
2022-08-07T01:36:06.027Z,49.32
2022-08-07T01:40:15.433Z,49.25
2022-08-07T01:44:28.883Z,49.57
2022-08-07T01:48:32.728Z,49.82
2022-08-07T01:52:39.112Z,49.90
2022-08-07T01:56:56.422Z,50.09
2022-08-07T02:01:09.483Z,50.23
2022-08-07T02:05:47.768Z,50.51
2022-08-07T02:09:58.888Z,50.03
2022-08-07T02:14:03.269Z,50.12
2022-08-07T02:18:12.681Z,50.21
2022-08-07T02:22:20.171Z,50.18
2022-08-07T02:26:32.446Z,50.07
2022-08-07T02:30:36.858Z,50.50
2022-08-07T02:34:51.045Z,50.45
2022-08-07T02:38:57.275Z,50.55
2022-08-07T02:43:02.398Z,50.38
2022-08-07T02:47:19.833Z,50.35
2022-08-07T02:51:42.553Z,50.38
2022-08-07T02:56:02.213Z,50.53
2022-08-07T03:00:11.116Z,50.09
2022-08-07T03:04:15.157Z,50.39
2022-08-07T03:08:19.359Z,50.97
2022-08-07T03:12:31.225Z,50.78
2022-08-07T03:16:41.723Z,51.11
2022-08-07T03:20:44.808Z,51.52
2022-08-07T03:24:47.038Z,51.61
2022-08-07T03:28:49.310Z,51.62
2022-08-07T03:32:58.345Z,51.73
2022-08-07T03:37:12.127Z,51.75
2022-08-07T03:41:17.664Z,51.36
2022-08-07T03:45:31.026Z,51.47
2022-08-07T03:49:39.493Z,51.79
2022-08-07T03:54:05.694Z,52.24
2022-08-07T03:58:33.205Z,51.95
2022-08-07T04:02:29.076Z,52.07
2022-08-07T04:06:37.238Z,52.00
2022-08-07T04:10:42.605Z,52.06
2022-08-07T04:14:58.529Z,52.31
2022-08-07T04:19:12.638Z,52.39
2022-08-07T04:23:25.682Z,52.20
2022-08-07T04:27:58.939Z,51.96
2022-08-07T04:32:03.240Z,52.22
2022-08-07T04:36:14.632Z,52.16
2022-08-07T04:40:19.756Z,52.16
2022-08-07T04:44:23.686Z,52.22
2022-08-07T04:48:45.928Z,52.23
2022-08-07T04:52:59.661Z,52.46
2022-08-07T04:58:12.229Z,52.54
2022-08-07T05:02:28.662Z,53.01
2022-08-07T05:06:43.309Z,52.77
2022-08-07T05:10:58.528Z,53.00
2022-08-07T05:15:23.575Z,52.78
2022-08-07T05:19:44.812Z,52.66
2022-08-07T05:23:53.328Z,52.74
2022-08-07T05:28:02.926Z,52.72
2022-08-07T05:32:24.860Z,52.71
2022-08-07T05:36:35.241Z,52.41
2022-08-07T05:40:50.700Z,52.43
2022-08-07T05:45:14.514Z,52.50
2022-08-07T05:49:20.136Z,52.29
2022-08-07T05:54:13.867Z,51.93
2022-08-07T05:57:50.356Z,51.61
2022-08-07T06:01:54.305Z,51.58
2022-08-07T06:05:58.855Z,51.39
2022-08-07T06:10:05.365Z,51.39
2022-08-07T06:14:11.700Z,51.42
2022-08-07T06:18:25.184Z,50.84
2022-08-07T06:22:36.879Z,50.55
2022-08-07T06:26:54.163Z,50.32
2022-08-07T06:30:58.153Z,50.19
2022-08-07T06:35:01.113Z,49.74
2022-08-07T06:40:16.426Z,49.83
2022-08-07T06:43:26.693Z,49.49
2022-08-07T06:47:57.383Z,49.53
2022-08-07T06:52:07.449Z,48.48
2022-08-07T06:56:16.083Z,48.11
2022-08-07T07:00:22.793Z,48.09
2022-08-07T07:04:28.529Z,47.60
2022-08-07T07:08:35.296Z,47.31
2022-08-07T07:12:50.213Z,46.83
2022-08-07T07:16:59.575Z,45.97
2022-08-07T07:21:27.089Z,45.38
2022-08-07T07:26:32.086Z,45.06
2022-08-07T07:30:09.768Z,44.97
2022-08-07T07:34:18.897Z,44.01
2022-08-07T07:38:25.961Z,43.02
2022-08-07T07:42:32.816Z,43.11
2022-08-07T07:46:53.691Z,41.71
2022-08-07T07:50:59.521Z,41.83
2022-08-07T07:55:05.801Z,41.65
2022-08-07T07:59:09.580Z,41.05
2022-08-07T08:03:16.805Z,40.60
2022-08-07T08:07:42.422Z,39.54
2022-08-07T08:12:01.959Z,39.91
2022-08-07T08:16:06.319Z,39.85
2022-08-07T08:20:17.830Z,39.04
2022-08-07T08:24:48.083Z,39.46
2022-08-07T08:29:01.229Z,39.19
2022-08-07T08:33:10.216Z,38.89
2022-08-07T08:37:59.745Z,38.43
2022-08-07T08:41:59.404Z,38.11
2022-08-07T08:46:20.491Z,38.31
2022-08-07T08:50:39.427Z,37.60
2022-08-07T08:54:49.386Z,37.28
2022-08-07T08:59:14.000Z,36.94
2022-08-07T09:03:52.551Z,37.12
2022-08-07T09:08:17.788Z,36.50
2022-08-07T09:13:06.924Z,36.08
2022-08-07T09:17:59.622Z,35.02
2022-08-07T09:24:29.214Z,34.89
2022-08-07T09:26:51.122Z,34.24
2022-08-07T09:31:10.938Z,33.74
2022-08-07T09:36:03.326Z,33.09
2022-08-07T09:40:10.119Z,33.21
2022-08-07T09:45:03.357Z,33.90
2022-08-07T09:50:01.285Z,32.35
2022-08-07T09:53:50.086Z,32.45
2022-08-07T09:58:32.065Z,32.22
2022-08-07T10:02:54.983Z,30.60
2022-08-07T10:07:25.953Z,30.93
2022-08-07T10:12:02.358Z,30.56
2022-08-07T10:16:12.063Z,30.20
2022-08-07T10:20:44.429Z,29.37
2022-08-07T10:25:13.819Z,28.51
2022-08-07T10:29:24.356Z,28.84
2022-08-07T10:34:17.874Z,28.76
2022-08-07T10:38:48.362Z,28.24
2022-08-07T10:43:10.118Z,28.34
2022-08-07T10:47:52.681Z,27.69
2022-08-07T10:52:13.780Z,26.92
2022-08-07T10:56:36.730Z,27.31
2022-08-07T11:00:50.410Z,27.54
2022-08-07T11:05:10.240Z,27.64
2022-08-07T11:10:09.676Z,27.48
2022-08-07T11:14:46.452Z,27.87
2022-08-07T11:18:50.918Z,26.89
2022-08-07T11:23:09.221Z,25.86
2022-08-07T11:28:01.820Z,24.98
2022-08-07T11:32:13.410Z,25.65
2022-08-07T11:36:33.243Z,25.18
2022-08-07T11:40:35.838Z,25.33
2022-08-07T11:45:03.531Z,25.36
2022-08-07T11:49:51.493Z,25.35
2022-08-07T11:54:11.821Z,23.15
2022-08-07T11:58:33.446Z,22.79
2022-08-07T12:03:44.174Z,22.72
2022-08-07T12:08:03.518Z,22.40
2022-08-07T12:12:12.643Z,22.58
2022-08-07T12:16:30.077Z,22.47
2022-08-07T12:20:46.362Z,21.89
2022-08-07T12:26:21.596Z,20.84
2022-08-07T12:30:04.291Z,20.26
2022-08-07T12:34:11.211Z,20.23
2022-08-07T12:38:29.256Z,20.09
2022-08-07T12:42:38.040Z,19.32
2022-08-07T12:47:03.073Z,18.77
2022-08-07T12:51:50.923Z,18.28
2022-08-07T12:56:09.306Z,18.08
2022-08-07T13:00:16.263Z,17.53
2022-08-07T13:05:01.997Z,16.96
2022-08-07T13:10:19.805Z,16.78
2022-08-07T13:14:07.384Z,16.29
2022-08-07T13:18:49.062Z,16.18
2022-08-07T13:23:59.968Z,15.93
2022-08-07T13:28:11.029Z,15.50
2022-08-07T13:32:31.073Z,15.90
2022-08-07T13:36:45.121Z,14.74
2022-08-07T13:40:58.100Z,14.47
2022-08-07T13:46:06.251Z,14.68
2022-08-07T13:50:34.121Z,13.97
2022-08-07T13:54:07.399Z,14.38
2022-08-07T13:58:31.649Z,13.87
2022-08-07T14:02:49.297Z,14.02
2022-08-07T14:06:54.189Z,13.75
2022-08-07T14:11:01.075Z,13.70
2022-08-07T14:15:11.573Z,13.52
2022-08-07T14:20:43.382Z,13.06
2022-08-07T14:24:02.000Z,13.30
2022-08-07T14:28:12.861Z,13.73
2022-08-07T14:32:17.523Z,14.09
2022-08-07T14:36:23.602Z,15.20
2022-08-07T14:40:35.063Z,16.82
2022-08-07T14:44:40.326Z,18.08
2022-08-07T14:48:45.778Z,18.28
2022-08-07T14:52:50.696Z,18.54
2022-08-07T14:56:54.904Z,18.83
2022-08-07T15:00:59.526Z,19.29
2022-08-07T15:05:02.642Z,20.15
2022-08-07T15:13:36.793Z,20.66
2022-08-07T15:22:10.133Z,21.46
2022-08-07T15:26:36.455Z,21.95
2022-08-07T15:31:05.280Z,21.95
2022-08-07T15:35:04.067Z,22.55
2022-08-07T15:39:10.467Z,22.36
2022-08-07T15:43:53.868Z,21.68
2022-08-07T15:48:00.380Z,21.27
2022-08-07T15:52:02.999Z,20.53
2022-08-07T15:56:09.883Z,21.38
2022-08-07T16:00:31.100Z,21.50
2022-08-07T16:04:36.255Z,21.62
2022-08-07T16:08:45.458Z,21.97
2022-08-07T16:13:17.452Z,22.12
2022-08-07T16:18:02.640Z,22.46
2022-08-07T16:22:14.783Z,22.91
2022-08-07T16:26:31.233Z,22.23
2022-08-07T16:30:38.618Z,22.44
2022-08-07T16:34:50.992Z,22.93
2022-08-07T16:39:21.024Z,22.97
2022-08-07T16:44:03.812Z,22.89
2022-08-07T16:48:13.589Z,23.34
2022-08-07T16:53:14.689Z,23.79
2022-08-07T16:58:02.390Z,23.56
2022-08-07T17:02:08.986Z,23.68
2022-08-07T17:07:02.794Z,23.84
2022-08-07T17:11:16.810Z,24.61
2022-08-07T17:15:50.586Z,24.46
2022-08-07T17:20:01.571Z,24.21
2022-08-07T17:24:23.660Z,24.70
2022-08-07T17:28:38.229Z,24.68
2022-08-07T17:33:02.526Z,24.26
2022-08-07T17:38:09.307Z,24.90
2022-08-07T17:42:02.295Z,25.08
2022-08-07T17:46:13.957Z,25.12
2022-08-07T17:50:23.568Z,25.11
2022-08-07T17:55:02.024Z,25.26
2022-08-07T17:59:35.899Z,25.02
2022-08-07T18:04:06.621Z,25.42
2022-08-07T18:09:01.460Z,25.22
2022-08-07T18:13:23.106Z,25.19
2022-08-07T18:18:33.196Z,25.29
2022-08-07T18:22:15.078Z,25.58
2022-08-07T18:26:26.443Z,26.12
2022-08-07T18:30:43.339Z,26.05
2022-08-07T18:35:10.509Z,26.37
2022-08-07T18:40:05.837Z,26.45
2022-08-07T18:44:24.183Z,26.87
2022-08-07T18:50:05.111Z,27.72
2022-08-07T18:53:16.458Z,28.30
2022-08-07T18:57:42.251Z,28.57
2022-08-07T19:02:18.591Z,28.80
2022-08-07T19:06:48.208Z,29.15
2022-08-07T19:10:59.571Z,29.73
2022-08-07T19:16:05.105Z,29.64
2022-08-07T19:20:29.833Z,30.53
2022-08-07T19:24:44.381Z,30.70
2022-08-07T19:30:54.295Z,30.84
2022-08-07T19:33:16.805Z,31.37
2022-08-07T19:37:22.352Z,31.79
2022-08-07T19:41:44.489Z,31.99
2022-08-07T19:46:07.627Z,32.31
2022-08-07T19:50:43.688Z,32.76
2022-08-07T19:54:45.322Z,32.80
2022-08-07T19:59:00.807Z,33.11
2022-08-07T20:03:32.755Z,33.09
2022-08-07T20:07:46.142Z,33.35
2022-08-07T20:12:23.395Z,33.80
2022-08-07T20:16:34.922Z,33.95
2022-08-07T20:20:39.545Z,33.76
2022-08-07T20:24:47.329Z,34.54
2022-08-07T20:28:53.897Z,34.37
2022-08-07T20:32:59.874Z,34.32
2022-08-07T20:37:03.304Z,34.29
2022-08-07T20:41:08.195Z,34.14
2022-08-07T20:45:33.184Z,34.31
2022-08-07T20:50:00.532Z,35.04
2022-08-07T20:54:11.788Z,34.69
2022-08-07T20:58:19.557Z,35.20
2022-08-07T21:02:53.828Z,35.33
2022-08-07T21:07:04.522Z,35.36
2022-08-07T21:11:22.138Z,35.59
2022-08-07T21:15:58.669Z,35.86
2022-08-07T21:20:09.829Z,36.09
2022-08-07T21:24:20.835Z,36.21
2022-08-07T21:28:49.215Z,36.63
2022-08-07T21:33:03.183Z,36.71
2022-08-07T21:37:10.316Z,36.48
2022-08-07T21:41:52.175Z,36.60
2022-08-07T21:46:24.475Z,36.37
2022-08-07T21:50:45.549Z,36.46
2022-08-07T21:55:19.386Z,36.52
2022-08-07T22:00:05.570Z,36.46
2022-08-07T22:04:20.200Z,36.73
2022-08-07T22:08:26.196Z,36.55
2022-08-07T22:12:34.995Z,36.64
2022-08-07T22:16:53.060Z,36.78
2022-08-07T22:21:06.604Z,36.56
2022-08-07T22:25:19.855Z,36.93
2022-08-07T22:29:49.589Z,37.02
2022-08-07T22:33:59.325Z,36.96
2022-08-07T22:38:20.492Z,36.96
2022-08-07T22:42:30.455Z,37.20
2022-08-07T22:47:08.703Z,37.32
2022-08-07T22:51:38.034Z,37.67
2022-08-07T22:55:59.701Z,37.49
2022-08-07T23:00:28.761Z,37.70
2022-08-07T23:04:33.605Z,37.70
2022-08-07T23:08:58.572Z,37.89
2022-08-07T23:13:49.045Z,37.90
2022-08-07T23:18:20.827Z,37.79
2022-08-07T23:22:32.437Z,37.55
2022-08-07T23:27:02.983Z,38.20
2022-08-07T23:34:21.734Z,38.09
2022-08-07T23:36:22.882Z,38.06
2022-08-07T23:41:07.966Z,38.24
2022-08-07T23:46:01.610Z,38.15
2022-08-07T23:50:01.019Z,37.99
2022-08-07T23:54:28.452Z,38.41
2022-08-07T23:58:55.875Z,38.23
